sensor_id;sensor_type;location;lat;lon;timestamp;temperature;humidity
18388;DHT22;9320;50.256;19.026;2023-03-13T00:01:13;7.00;76.00
18388;DHT22;9320;50.256;19.026;2023-03-13T00:03:41;7.00;76.50
18388;DHT22;9320;50.256;19.026;2023-03-13T00:06:10;7.00;76.80
18388;DHT22;9320;50.256;19.026;2023-03-13T00:08:38;7.00;77.20
18388;DHT22;9320;50.256;19.026;2023-03-13T00:11:10;7.00;77.40
18388;DHT22;9320;50.256;19.026;2023-03-13T00:13:38;7.10;77.70
18388;DHT22;9320;50.256;19.026;2023-03-13T00:16:08;7.10;77.90
18388;DHT22;9320;50.256;19.026;2023-03-13T00:18:38;7.10;78.30
18388;DHT22;9320;50.256;19.026;2023-03-13T00:21:08;7.10;78.40
18388;DHT22;9320;50.256;19.026;2023-03-13T00:23:37;7.20;78.50
18388;DHT22;9320;50.256;19.026;2023-03-13T00:26:07;7.20;78.80
18388;DHT22;9320;50.256;19.026;2023-03-13T00:28:36;7.20;79.10
18388;DHT22;9320;50.256;19.026;2023-03-13T00:31:06;7.20;79.50
18388;DHT22;9320;50.256;19.026;2023-03-13T00:33:38;7.10;80.00
18388;DHT22;9320;50.256;19.026;2023-03-13T00:36:08;7.10;80.30
18388;DHT22;9320;50.256;19.026;2023-03-13T00:38:36;7.10;80.70
18388;DHT22;9320;50.256;19.026;2023-03-13T00:41:05;7.20;80.70
18388;DHT22;9320;50.256;19.026;2023-03-13T00:43:34;7.20;80.90
18388;DHT22;9320;50.256;19.026;2023-03-13T00:46:02;7.20;81.00
18388;DHT22;9320;50.256;19.026;2023-03-13T00:48:30;7.20;81.40
18388;DHT22;9320;50.256;19.026;2023-03-13T00:51:01;7.20;81.40
18388;DHT22;9320;50.256;19.026;2023-03-13T00:53:29;7.30;81.60
18388;DHT22;9320;50.256;19.026;2023-03-13T00:55:58;7.30;82.00
18388;DHT22;9320;50.256;19.026;2023-03-13T00:58:28;7.20;82.50
18388;DHT22;9320;50.256;19.026;2023-03-13T01:00:56;7.20;82.90
18388;DHT22;9320;50.256;19.026;2023-03-13T01:03:24;7.20;83.20
18388;DHT22;9320;50.256;19.026;2023-03-13T01:05:56;7.30;83.60
18388;DHT22;9320;50.256;19.026;2023-03-13T01:08:27;7.30;83.80
18388;DHT22;9320;50.256;19.026;2023-03-13T01:10:58;7.20;84.20
18388;DHT22;9320;50.256;19.026;2023-03-13T01:13:27;7.20;84.80
18388;DHT22;9320;50.256;19.026;2023-03-13T01:15:56;7.30;85.20
18388;DHT22;9320;50.256;19.026;2023-03-13T01:18:24;7.30;85.30
18388;DHT22;9320;50.256;19.026;2023-03-13T01:20:52;7.30;85.50
18388;DHT22;9320;50.256;19.026;2023-03-13T01:23:20;7.40;85.90
18388;DHT22;9320;50.256;19.026;2023-03-13T01:25:49;7.40;86.10
18388;DHT22;9320;50.256;19.026;2023-03-13T01:28:17;7.40;86.60
18388;DHT22;9320;50.256;19.026;2023-03-13T01:30:45;7.50;87.30
18388;DHT22;9320;50.256;19.026;2023-03-13T01:33:13;7.40;87.00
18388;DHT22;9320;50.256;19.026;2023-03-13T01:35:41;7.40;87.30
18388;DHT22;9320;50.256;19.026;2023-03-13T01:38:10;7.50;87.60
18388;DHT22;9320;50.256;19.026;2023-03-13T01:40:39;7.50;87.80
18388;DHT22;9320;50.256;19.026;2023-03-13T01:43:20;7.60;87.80
18388;DHT22;9320;50.256;19.026;2023-03-13T01:45:59;7.60;87.90
18388;DHT22;9320;50.256;19.026;2023-03-13T01:48:34;7.60;88.40
18388;DHT22;9320;50.256;19.026;2023-03-13T01:51:07;7.60;88.80
18388;DHT22;9320;50.256;19.026;2023-03-13T01:53:39;7.60;88.90
18388;DHT22;9320;50.256;19.026;2023-03-13T01:56:12;7.60;89.30
18388;DHT22;9320;50.256;19.026;2023-03-13T01:58:43;7.60;89.70
18388;DHT22;9320;50.256;19.026;2023-03-13T02:01:12;7.70;90.00
18388;DHT22;9320;50.256;19.026;2023-03-13T02:03:41;7.60;90.10
18388;DHT22;9320;50.256;19.026;2023-03-13T02:06:10;7.60;90.30
18388;DHT22;9320;50.256;19.026;2023-03-13T02:08:43;7.70;90.40
18388;DHT22;9320;50.256;19.026;2023-03-13T02:11:20;7.70;90.60
18388;DHT22;9320;50.256;19.026;2023-03-13T02:13:53;7.60;90.80
18388;DHT22;9320;50.256;19.026;2023-03-13T02:16:22;7.60;91.20
18388;DHT22;9320;50.256;19.026;2023-03-13T02:18:50;7.60;91.40
18388;DHT22;9320;50.256;19.026;2023-03-13T02:21:27;7.60;91.60
18388;DHT22;9320;50.256;19.026;2023-03-13T02:24:05;7.90;91.70
18388;DHT22;9320;50.256;19.026;2023-03-13T02:26:37;7.70;91.90
18388;DHT22;9320;50.256;19.026;2023-03-13T02:29:05;7.80;91.90
18388;DHT22;9320;50.256;19.026;2023-03-13T02:31:33;7.80;92.00
18388;DHT22;9320;50.256;19.026;2023-03-13T02:34:02;7.80;92.20
18388;DHT22;9320;50.256;19.026;2023-03-13T02:36:30;7.70;92.40
18388;DHT22;9320;50.256;19.026;2023-03-13T02:39:01;7.70;92.80
18388;DHT22;9320;50.256;19.026;2023-03-13T02:41:32;7.70;93.20
18388;DHT22;9320;50.256;19.026;2023-03-13T02:44:02;7.70;93.50
18388;DHT22;9320;50.256;19.026;2023-03-13T02:46:43;7.70;93.70
18388;DHT22;9320;50.256;19.026;2023-03-13T02:49:23;7.70;93.80
18388;DHT22;9320;50.256;19.026;2023-03-13T02:51:53;7.80;93.90
18388;DHT22;9320;50.256;19.026;2023-03-13T02:54:24;7.80;94.00
18388;DHT22;9320;50.256;19.026;2023-03-13T02:56:55;7.80;94.10
18388;DHT22;9320;50.256;19.026;2023-03-13T02:59:25;7.80;94.40
18388;DHT22;9320;50.256;19.026;2023-03-13T03:01:53;7.80;94.40
18388;DHT22;9320;50.256;19.026;2023-03-13T03:04:24;7.90;94.40
18388;DHT22;9320;50.256;19.026;2023-03-13T03:06:52;7.90;94.40
18388;DHT22;9320;50.256;19.026;2023-03-13T03:09:21;7.90;94.60
18388;DHT22;9320;50.256;19.026;2023-03-13T03:11:49;7.90;94.70
18388;DHT22;9320;50.256;19.026;2023-03-13T03:14:17;7.80;95.00
18388;DHT22;9320;50.256;19.026;2023-03-13T03:16:47;7.80;95.20
18388;DHT22;9320;50.256;19.026;2023-03-13T03:19:15;7.90;95.40
18388;DHT22;9320;50.256;19.026;2023-03-13T03:21:43;7.90;95.50
18388;DHT22;9320;50.256;19.026;2023-03-13T03:24:11;7.80;95.80
18388;DHT22;9320;50.256;19.026;2023-03-13T03:26:39;7.80;96.10
18388;DHT22;9320;50.256;19.026;2023-03-13T03:29:07;7.80;96.20
18388;DHT22;9320;50.256;19.026;2023-03-13T03:31:36;7.80;96.40
18388;DHT22;9320;50.256;19.026;2023-03-13T03:34:06;7.80;96.60
18388;DHT22;9320;50.256;19.026;2023-03-13T03:36:34;7.70;97.10
18388;DHT22;9320;50.256;19.026;2023-03-13T03:39:02;7.70;97.40
18388;DHT22;9320;50.256;19.026;2023-03-13T03:41:31;7.80;97.60
18388;DHT22;9320;50.256;19.026;2023-03-13T03:43:59;7.80;97.80
18388;DHT22;9320;50.256;19.026;2023-03-13T03:46:26;7.80;98.00
18388;DHT22;9320;50.256;19.026;2023-03-13T03:48:55;7.80;98.00
18388;DHT22;9320;50.256;19.026;2023-03-13T03:51:24;7.80;98.30
18388;DHT22;9320;50.256;19.026;2023-03-13T03:53:52;7.90;98.30
18388;DHT22;9320;50.256;19.026;2023-03-13T03:56:20;7.80;98.50
18388;DHT22;9320;50.256;19.026;2023-03-13T03:58:48;7.80;98.70
18388;DHT22;9320;50.256;19.026;2023-03-13T04:01:16;7.80;98.90
18388;DHT22;9320;50.256;19.026;2023-03-13T04:03:44;7.70;99.30
18388;DHT22;9320;50.256;19.026;2023-03-13T04:06:14;7.80;99.60
18388;DHT22;9320;50.256;19.026;2023-03-13T04:08:43;7.80;99.70
18388;DHT22;9320;50.256;19.026;2023-03-13T04:11:11;7.70;99.90
18388;DHT22;9320;50.256;19.026;2023-03-13T04:13:39;7.70;99.90
18388;DHT22;9320;50.256;19.026;2023-03-13T04:16:08;7.70;99.90
18388;DHT22;9320;50.256;19.026;2023-03-13T04:18:36;7.70;99.90
18388;DHT22;9320;50.256;19.026;2023-03-13T04:21:05;7.70;99.90
18388;DHT22;9320;50.256;19.026;2023-03-13T04:23:33;7.70;99.90
18388;DHT22;9320;50.256;19.026;2023-03-13T04:26:02;7.70;99.90
18388;DHT22;9320;50.256;19.026;2023-03-13T04:28:30;7.80;99.90
18388;DHT22;9320;50.256;19.026;2023-03-13T04:30:58;7.70;99.90
18388;DHT22;9320;50.256;19.026;2023-03-13T04:33:27;7.70;99.90
18388;DHT22;9320;50.256;19.026;2023-03-13T04:35:55;7.80;99.90
18388;DHT22;9320;50.256;19.026;2023-03-13T04:38:23;7.80;99.90
18388;DHT22;9320;50.256;19.026;2023-03-13T04:40:51;7.80;99.90
18388;DHT22;9320;50.256;19.026;2023-03-13T04:43:20;7.80;99.90
18388;DHT22;9320;50.256;19.026;2023-03-13T04:45:50;7.80;99.90
18388;DHT22;9320;50.256;19.026;2023-03-13T04:48:20;7.80;99.90
18388;DHT22;9320;50.256;19.026;2023-03-13T04:50:48;7.80;99.90
18388;DHT22;9320;50.256;19.026;2023-03-13T04:53:16;7.80;99.90
18388;DHT22;9320;50.256;19.026;2023-03-13T04:55:45;7.80;99.90
18388;DHT22;9320;50.256;19.026;2023-03-13T04:58:14;7.80;99.90
18388;DHT22;9320;50.256;19.026;2023-03-13T05:00:43;7.80;99.90
18388;DHT22;9320;50.256;19.026;2023-03-13T05:03:11;7.80;99.90
18388;DHT22;9320;50.256;19.026;2023-03-13T05:05:39;7.80;99.90
18388;DHT22;9320;50.256;19.026;2023-03-13T05:08:07;7.80;99.90
18388;DHT22;9320;50.256;19.026;2023-03-13T05:10:36;7.90;99.90
18388;DHT22;9320;50.256;19.026;2023-03-13T05:13:04;7.90;99.90
18388;DHT22;9320;50.256;19.026;2023-03-13T05:15:32;7.90;99.90
18388;DHT22;9320;50.256;19.026;2023-03-13T05:18:02;7.90;99.90
18388;DHT22;9320;50.256;19.026;2023-03-13T05:20:30;8.00;99.90
18388;DHT22;9320;50.256;19.026;2023-03-13T05:22:58;8.00;99.90
18388;DHT22;9320;50.256;19.026;2023-03-13T05:25:26;8.00;99.90
18388;DHT22;9320;50.256;19.026;2023-03-13T05:27:54;7.90;99.90
18388;DHT22;9320;50.256;19.026;2023-03-13T05:30:22;7.90;99.90
18388;DHT22;9320;50.256;19.026;2023-03-13T05:32:50;7.90;99.90
18388;DHT22;9320;50.256;19.026;2023-03-13T05:35:20;7.90;99.90
18388;DHT22;9320;50.256;19.026;2023-03-13T05:37:48;7.90;99.90
18388;DHT22;9320;50.256;19.026;2023-03-13T05:40:16;7.90;99.90
18388;DHT22;9320;50.256;19.026;2023-03-13T05:42:44;7.90;99.90
18388;DHT22;9320;50.256;19.026;2023-03-13T05:45:12;8.00;99.90
18388;DHT22;9320;50.256;19.026;2023-03-13T05:47:40;8.00;99.90
18388;DHT22;9320;50.256;19.026;2023-03-13T05:50:09;8.00;99.90
18388;DHT22;9320;50.256;19.026;2023-03-13T05:52:39;8.00;99.90
18388;DHT22;9320;50.256;19.026;2023-03-13T05:55:07;7.90;99.90
18388;DHT22;9320;50.256;19.026;2023-03-13T05:57:35;8.00;99.90
18388;DHT22;9320;50.256;19.026;2023-03-13T06:00:04;8.20;99.90
18388;DHT22;9320;50.256;19.026;2023-03-13T06:02:33;8.20;99.90
18388;DHT22;9320;50.256;19.026;2023-03-13T06:05:01;8.30;99.90
18388;DHT22;9320;50.256;19.026;2023-03-13T06:07:29;8.50;99.90
18388;DHT22;9320;50.256;19.026;2023-03-13T06:09:58;8.40;99.90
18388;DHT22;9320;50.256;19.026;2023-03-13T06:12:26;8.40;99.90
18388;DHT22;9320;50.256;19.026;2023-03-13T06:14:54;8.40;99.90
18388;DHT22;9320;50.256;19.026;2023-03-13T06:17:22;8.40;99.90
18388;DHT22;9320;50.256;19.026;2023-03-13T06:19:51;8.40;99.90
18388;DHT22;9320;50.256;19.026;2023-03-13T06:22:19;8.40;99.90
18388;DHT22;9320;50.256;19.026;2023-03-13T06:24:47;8.40;99.90
18388;DHT22;9320;50.256;19.026;2023-03-13T06:27:16;8.40;99.90
18388;DHT22;9320;50.256;19.026;2023-03-13T06:29:44;8.40;99.90
18388;DHT22;9320;50.256;19.026;2023-03-13T06:32:12;8.40;99.90
18388;DHT22;9320;50.256;19.026;2023-03-13T06:34:41;8.40;99.90
18388;DHT22;9320;50.256;19.026;2023-03-13T06:37:09;8.60;99.90
18388;DHT22;9320;50.256;19.026;2023-03-13T06:39:37;8.40;99.90
18388;DHT22;9320;50.256;19.026;2023-03-13T06:42:06;8.50;99.90
18388;DHT22;9320;50.256;19.026;2023-03-13T06:44:36;8.50;99.80
18388;DHT22;9320;50.256;19.026;2023-03-13T06:47:04;8.50;99.60
18388;DHT22;9320;50.256;19.026;2023-03-13T06:49:32;8.60;99.20
18388;DHT22;9320;50.256;19.026;2023-03-13T06:52:00;8.80;98.80
18388;DHT22;9320;50.256;19.026;2023-03-13T06:54:28;9.00;98.20
18388;DHT22;9320;50.256;19.026;2023-03-13T06:56:56;9.00;97.40
18388;DHT22;9320;50.256;19.026;2023-03-13T06:59:25;9.20;97.30
18388;DHT22;9320;50.256;19.026;2023-03-13T07:01:54;9.20;96.70
18388;DHT22;9320;50.256;19.026;2023-03-13T07:04:22;9.30;96.40
18388;DHT22;9320;50.256;19.026;2023-03-13T07:06:50;9.20;96.30
18388;DHT22;9320;50.256;19.026;2023-03-13T07:09:18;9.20;96.70
18388;DHT22;9320;50.256;19.026;2023-03-13T07:11:47;9.20;96.50
18388;DHT22;9320;50.256;19.026;2023-03-13T07:14:15;9.30;96.40
18388;DHT22;9320;50.256;19.026;2023-03-13T07:16:43;9.40;96.10
18388;DHT22;9320;50.256;19.026;2023-03-13T07:19:14;9.50;95.70
18388;DHT22;9320;50.256;19.026;2023-03-13T07:21:42;9.70;95.40
18388;DHT22;9320;50.256;19.026;2023-03-13T07:24:10;9.80;94.80
18388;DHT22;9320;50.256;19.026;2023-03-13T07:26:39;9.90;94.40
18388;DHT22;9320;50.256;19.026;2023-03-13T07:29:20;9.80;94.70
18388;DHT22;9320;50.256;19.026;2023-03-13T07:31:48;9.80;94.50
18388;DHT22;9320;50.256;19.026;2023-03-13T07:34:18;9.80;94.50
18388;DHT22;9320;50.256;19.026;2023-03-13T07:36:46;9.70;94.80
18388;DHT22;9320;50.256;19.026;2023-03-13T07:39:14;9.70;94.80
18388;DHT22;9320;50.256;19.026;2023-03-13T07:41:42;9.80;94.80
18388;DHT22;9320;50.256;19.026;2023-03-13T07:44:10;9.90;94.70
18388;DHT22;9320;50.256;19.026;2023-03-13T07:46:38;9.90;94.60
18388;DHT22;9320;50.256;19.026;2023-03-13T07:49:06;9.90;94.70
18388;DHT22;9320;50.256;19.026;2023-03-13T07:51:35;9.90;94.60
18388;DHT22;9320;50.256;19.026;2023-03-13T07:54:10;9.90;94.90
18388;DHT22;9320;50.256;19.026;2023-03-13T07:56:38;10.00;94.50
18388;DHT22;9320;50.256;19.026;2023-03-13T07:59:06;10.10;94.50
18388;DHT22;9320;50.256;19.026;2023-03-13T08:01:35;10.10;94.20
18388;DHT22;9320;50.256;19.026;2023-03-13T08:04:03;10.10;94.20
18388;DHT22;9320;50.256;19.026;2023-03-13T08:06:32;10.30;94.00
18388;DHT22;9320;50.256;19.026;2023-03-13T08:09:03;10.50;93.70
18388;DHT22;9320;50.256;19.026;2023-03-13T08:11:32;10.70;93.40
18388;DHT22;9320;50.256;19.026;2023-03-13T08:14:00;10.70;93.00
18388;DHT22;9320;50.256;19.026;2023-03-13T08:16:30;10.80;92.80
18388;DHT22;9320;50.256;19.026;2023-03-13T08:19:00;10.90;92.40
18388;DHT22;9320;50.256;19.026;2023-03-13T08:21:32;11.00;92.20
18388;DHT22;9320;50.256;19.026;2023-03-13T08:24:02;11.10;91.90
18388;DHT22;9320;50.256;19.026;2023-03-13T08:26:35;11.10;91.70
18388;DHT22;9320;50.256;19.026;2023-03-13T08:29:05;11.20;91.70
18388;DHT22;9320;50.256;19.026;2023-03-13T08:31:36;11.30;91.30
18388;DHT22;9320;50.256;19.026;2023-03-13T08:34:04;11.30;91.30
18388;DHT22;9320;50.256;19.026;2023-03-13T08:36:33;11.40;91.30
18388;DHT22;9320;50.256;19.026;2023-03-13T08:39:03;11.50;91.00
18388;DHT22;9320;50.256;19.026;2023-03-13T08:41:34;11.60;90.80
18388;DHT22;9320;50.256;19.026;2023-03-13T08:44:03;11.70;90.90
18388;DHT22;9320;50.256;19.026;2023-03-13T08:46:33;11.90;90.10
18388;DHT22;9320;50.256;19.026;2023-03-13T08:49:03;11.90;89.70
18388;DHT22;9320;50.256;19.026;2023-03-13T08:51:31;12.00;89.30
18388;DHT22;9320;50.256;19.026;2023-03-13T08:54:00;12.20;88.90
18388;DHT22;9320;50.256;19.026;2023-03-13T08:56:32;12.30;88.00
18388;DHT22;9320;50.256;19.026;2023-03-13T08:59:02;12.40;87.60
18388;DHT22;9320;50.256;19.026;2023-03-13T09:01:32;12.40;87.90
18388;DHT22;9320;50.256;19.026;2023-03-13T09:04:01;12.40;87.40
18388;DHT22;9320;50.256;19.026;2023-03-13T09:06:30;12.60;86.40
18388;DHT22;9320;50.256;19.026;2023-03-13T09:08:59;12.80;85.80
18388;DHT22;9320;50.256;19.026;2023-03-13T09:11:27;12.80;85.30
18388;DHT22;9320;50.256;19.026;2023-03-13T09:13:57;12.90;85.10
18388;DHT22;9320;50.256;19.026;2023-03-13T09:16:27;12.80;85.40
18388;DHT22;9320;50.256;19.026;2023-03-13T09:18:56;12.80;84.80
18388;DHT22;9320;50.256;19.026;2023-03-13T09:21:26;12.90;84.50
18388;DHT22;9320;50.256;19.026;2023-03-13T09:23:55;13.10;84.10
18388;DHT22;9320;50.256;19.026;2023-03-13T09:26:24;13.10;83.90
18388;DHT22;9320;50.256;19.026;2023-03-13T09:28:53;13.10;83.90
18388;DHT22;9320;50.256;19.026;2023-03-13T09:31:24;12.90;84.00
18388;DHT22;9320;50.256;19.026;2023-03-13T09:33:53;13.00;84.10
18388;DHT22;9320;50.256;19.026;2023-03-13T09:36:21;13.00;83.80
18388;DHT22;9320;50.256;19.026;2023-03-13T09:38:51;13.30;83.50
18388;DHT22;9320;50.256;19.026;2023-03-13T09:41:22;18.10;74.40
18388;DHT22;9320;50.256;19.026;2023-03-13T09:43:57;23.20;59.60
18388;DHT22;9320;50.256;19.026;2023-03-13T09:46:32;27.00;48.20
18388;DHT22;9320;50.256;19.026;2023-03-13T09:49:04;22.90;48.70
18388;DHT22;9320;50.256;19.026;2023-03-13T09:51:37;21.10;53.00
18388;DHT22;9320;50.256;19.026;2023-03-13T09:54:08;24.70;45.90
18388;DHT22;9320;50.256;19.026;2023-03-13T09:56:45;26.60;43.70
18388;DHT22;9320;50.256;19.026;2023-03-13T09:59:18;27.70;39.90
18388;DHT22;9320;50.256;19.026;2023-03-13T10:01:48;29.70;37.50
18388;DHT22;9320;50.256;19.026;2023-03-13T10:04:28;30.60;34.70
18388;DHT22;9320;50.256;19.026;2023-03-13T10:06:57;28.30;38.20
18388;DHT22;9320;50.256;19.026;2023-03-13T10:09:28;26.30;40.80
18388;DHT22;9320;50.256;19.026;2023-03-13T10:12:04;27.20;41.20
18388;DHT22;9320;50.256;19.026;2023-03-13T10:14:41;27.30;36.80
18388;DHT22;9320;50.256;19.026;2023-03-13T10:17:21;26.60;38.40
18388;DHT22;9320;50.256;19.026;2023-03-13T10:19:55;29.10;37.40
18388;DHT22;9320;50.256;19.026;2023-03-13T10:22:26;31.80;34.60
18388;DHT22;9320;50.256;19.026;2023-03-13T10:24:57;32.00;33.60
18388;DHT22;9320;50.256;19.026;2023-03-13T10:27:26;31.30;33.50
18388;DHT22;9320;50.256;19.026;2023-03-13T10:29:54;29.40;34.90
18388;DHT22;9320;50.256;19.026;2023-03-13T10:32:23;27.40;34.90
18388;DHT22;9320;50.256;19.026;2023-03-13T10:34:55;27.30;35.00
18388;DHT22;9320;50.256;19.026;2023-03-13T10:37:26;26.80;37.30
18388;DHT22;9320;50.256;19.026;2023-03-13T10:39:56;23.90;41.60
18388;DHT22;9320;50.256;19.026;2023-03-13T10:42:42;20.60;47.50
18388;DHT22;9320;50.256;19.026;2023-03-13T10:45:15;18.40;52.60
18388;DHT22;9320;50.256;19.026;2023-03-13T10:47:53;17.90;55.00
18388;DHT22;9320;50.256;19.026;2023-03-13T10:50:23;17.50;56.10
18388;DHT22;9320;50.256;19.026;2023-03-13T10:52:52;17.40;56.20
18388;DHT22;9320;50.256;19.026;2023-03-13T10:55:22;16.90;57.40
18388;DHT22;9320;50.256;19.026;2023-03-13T10:57:56;17.10;58.00
18388;DHT22;9320;50.256;19.026;2023-03-13T11:00:31;17.20;57.70
18388;DHT22;9320;50.256;19.026;2023-03-13T11:03:04;17.50;57.60
18388;DHT22;9320;50.256;19.026;2023-03-13T11:05:37;17.10;57.50
18388;DHT22;9320;50.256;19.026;2023-03-13T11:08:12;16.70;58.50
18388;DHT22;9320;50.256;19.026;2023-03-13T11:10:58;16.80;59.00
18388;DHT22;9320;50.256;19.026;2023-03-13T11:13:33;16.60;59.20
18388;DHT22;9320;50.256;19.026;2023-03-13T11:16:18;16.50;59.10
18388;DHT22;9320;50.256;19.026;2023-03-13T11:19:14;16.10;59.70
18388;DHT22;9320;50.256;19.026;2023-03-13T11:21:56;15.90;61.50
18388;DHT22;9320;50.256;19.026;2023-03-13T11:24:33;15.90;61.90
18388;DHT22;9320;50.256;19.026;2023-03-13T11:27:11;16.10;62.00
18388;DHT22;9320;50.256;19.026;2023-03-13T11:29:50;15.90;61.30
18388;DHT22;9320;50.256;19.026;2023-03-13T11:32:28;15.50;61.40
18388;DHT22;9320;50.256;19.026;2023-03-13T11:35:02;15.20;61.80
18388;DHT22;9320;50.256;19.026;2023-03-13T11:37:37;14.90;62.40
18388;DHT22;9320;50.256;19.026;2023-03-13T11:40:16;15.00;63.60
18388;DHT22;9320;50.256;19.026;2023-03-13T11:42:56;15.00;64.80
18388;DHT22;9320;50.256;19.026;2023-03-13T11:45:50;15.40;65.40
18388;DHT22;9320;50.256;19.026;2023-03-13T11:48:35;15.40;65.90
18388;DHT22;9320;50.256;19.026;2023-03-13T11:51:14;15.30;64.70
18388;DHT22;9320;50.256;19.026;2023-03-13T11:54:09;15.40;64.40
18388;DHT22;9320;50.256;19.026;2023-03-13T11:56:42;15.20;63.10
18388;DHT22;9320;50.256;19.026;2023-03-13T11:59:24;15.00;62.20
18388;DHT22;9320;50.256;19.026;2023-03-13T12:01:59;15.10;62.10
18388;DHT22;9320;50.256;19.026;2023-03-13T12:04:32;15.10;61.40
18388;DHT22;9320;50.256;19.026;2023-03-13T12:07:06;15.10;61.00
18388;DHT22;9320;50.256;19.026;2023-03-13T12:09:40;15.00;60.30
18388;DHT22;9320;50.256;19.026;2023-03-13T12:12:16;15.00;59.80
18388;DHT22;9320;50.256;19.026;2023-03-13T12:14:49;15.00;59.40
18388;DHT22;9320;50.256;19.026;2023-03-13T12:17:28;15.10;58.80
18388;DHT22;9320;50.256;19.026;2023-03-13T12:20:02;15.20;58.40
18388;DHT22;9320;50.256;19.026;2023-03-13T12:22:41;15.30;58.60
18388;DHT22;9320;50.256;19.026;2023-03-13T12:25:16;15.20;58.80
18388;DHT22;9320;50.256;19.026;2023-03-13T12:27:48;15.30;59.10
18388;DHT22;9320;50.256;19.026;2023-03-13T12:30:23;15.20;59.10
18388;DHT22;9320;50.256;19.026;2023-03-13T12:32:58;15.10;59.70
18388;DHT22;9320;50.256;19.026;2023-03-13T12:35:30;15.00;60.00
18388;DHT22;9320;50.256;19.026;2023-03-13T12:38:03;14.90;60.60
18388;DHT22;9320;50.256;19.026;2023-03-13T12:40:37;14.70;61.20
18388;DHT22;9320;50.256;19.026;2023-03-13T12:43:11;14.60;62.30
18388;DHT22;9320;50.256;19.026;2023-03-13T12:45:50;14.60;62.90
18388;DHT22;9320;50.256;19.026;2023-03-13T12:48:55;14.40;62.70
18388;DHT22;9320;50.256;19.026;2023-03-13T12:51:41;14.20;63.90
18388;DHT22;9320;50.256;19.026;2023-03-13T12:54:30;14.00;65.00
18388;DHT22;9320;50.256;19.026;2023-03-13T12:57:14;13.90;66.20
18388;DHT22;9320;50.256;19.026;2023-03-13T12:59:47;13.90;66.60
18388;DHT22;9320;50.256;19.026;2023-03-13T13:02:19;13.70;67.00
18388;DHT22;9320;50.256;19.026;2023-03-13T13:04:50;13.70;67.10
18388;DHT22;9320;50.256;19.026;2023-03-13T13:07:22;13.70;67.40
18388;DHT22;9320;50.256;19.026;2023-03-13T13:10:12;13.60;68.40
18388;DHT22;9320;50.256;19.026;2023-03-13T13:12:43;13.70;69.60
18388;DHT22;9320;50.256;19.026;2023-03-13T13:15:19;13.60;69.50
18388;DHT22;9320;50.256;19.026;2023-03-13T13:20:47;13.60;70.70
18388;DHT22;9320;50.256;19.026;2023-03-13T13:23:33;13.60;70.50
18388;DHT22;9320;50.256;19.026;2023-03-13T13:32:44;13.70;71.60
18388;DHT22;9320;50.256;19.026;2023-03-13T13:35:24;13.70;72.20
18388;DHT22;9320;50.256;19.026;2023-03-13T13:38:00;13.70;71.50
18388;DHT22;9320;50.256;19.026;2023-03-13T13:40:58;13.60;71.80
18388;DHT22;9320;50.256;19.026;2023-03-13T13:43:30;13.50;72.40
18388;DHT22;9320;50.256;19.026;2023-03-13T13:46:01;13.40;72.90
18388;DHT22;9320;50.256;19.026;2023-03-13T13:48:33;13.30;73.50
18388;DHT22;9320;50.256;19.026;2023-03-13T13:51:21;13.10;74.10
18388;DHT22;9320;50.256;19.026;2023-03-13T13:53:53;13.10;74.50
18388;DHT22;9320;50.256;19.026;2023-03-13T13:56:40;12.90;75.10
18388;DHT22;9320;50.256;19.026;2023-03-13T13:59:38;12.90;75.50
18388;DHT22;9320;50.256;19.026;2023-03-13T14:02:20;12.70;76.00
18388;DHT22;9320;50.256;19.026;2023-03-13T14:04:55;12.60;76.70
18388;DHT22;9320;50.256;19.026;2023-03-13T14:07:30;12.60;77.30
18388;DHT22;9320;50.256;19.026;2023-03-13T14:10:03;12.60;76.60
18388;DHT22;9320;50.256;19.026;2023-03-13T14:12:34;12.50;76.80
18388;DHT22;9320;50.256;19.026;2023-03-13T14:15:07;12.50;77.00
18388;DHT22;9320;50.256;19.026;2023-03-13T14:17:40;12.50;77.40
18388;DHT22;9320;50.256;19.026;2023-03-13T14:20:29;12.50;77.70
18388;DHT22;9320;50.256;19.026;2023-03-13T14:22:59;12.50;78.30
18388;DHT22;9320;50.256;19.026;2023-03-13T14:25:40;12.40;80.80
18388;DHT22;9320;50.256;19.026;2023-03-13T14:28:18;12.30;81.30
18388;DHT22;9320;50.256;19.026;2023-03-13T14:30:49;12.30;81.90
18388;DHT22;9320;50.256;19.026;2023-03-13T14:33:17;12.00;82.70
18388;DHT22;9320;50.256;19.026;2023-03-13T14:35:47;11.90;84.00
18388;DHT22;9320;50.256;19.026;2023-03-13T14:38:18;11.90;84.40
18388;DHT22;9320;50.256;19.026;2023-03-13T14:40:47;11.90;84.50
18388;DHT22;9320;50.256;19.026;2023-03-13T14:43:30;11.80;84.20
18388;DHT22;9320;50.256;19.026;2023-03-13T14:45:59;11.80;84.60
18388;DHT22;9320;50.256;19.026;2023-03-13T14:48:29;11.80;84.30
18388;DHT22;9320;50.256;19.026;2023-03-13T14:51:07;11.80;84.50
18388;DHT22;9320;50.256;19.026;2023-03-13T14:53:53;11.80;84.70
18388;DHT22;9320;50.256;19.026;2023-03-13T14:56:31;11.70;84.00
18388;DHT22;9320;50.256;19.026;2023-03-13T14:59:07;11.70;84.20
18388;DHT22;9320;50.256;19.026;2023-03-13T15:01:35;11.80;84.10
18388;DHT22;9320;50.256;19.026;2023-03-13T15:04:04;11.70;84.50
18388;DHT22;9320;50.256;19.026;2023-03-13T15:06:33;11.70;84.40
18388;DHT22;9320;50.256;19.026;2023-03-13T15:09:17;11.80;84.30
18388;DHT22;9320;50.256;19.026;2023-03-13T15:11:54;11.90;84.00
18388;DHT22;9320;50.256;19.026;2023-03-13T15:14:35;11.90;83.80
18388;DHT22;9320;50.256;19.026;2023-03-13T15:17:12;11.90;83.90
18388;DHT22;9320;50.256;19.026;2023-03-13T15:19:40;11.90;84.00
18388;DHT22;9320;50.256;19.026;2023-03-13T15:22:13;11.90;84.00
18388;DHT22;9320;50.256;19.026;2023-03-13T15:24:42;11.90;84.20
18388;DHT22;9320;50.256;19.026;2023-03-13T15:27:30;11.90;84.50
18388;DHT22;9320;50.256;19.026;2023-03-13T15:29:58;11.90;84.50
18388;DHT22;9320;50.256;19.026;2023-03-13T15:32:28;11.90;84.40
18388;DHT22;9320;50.256;19.026;2023-03-13T15:34:57;11.90;84.40
18388;DHT22;9320;50.256;19.026;2023-03-13T15:37:29;11.80;85.00
18388;DHT22;9320;50.256;19.026;2023-03-13T15:39:57;11.80;84.80
18388;DHT22;9320;50.256;19.026;2023-03-13T15:42:26;11.80;84.80
18388;DHT22;9320;50.256;19.026;2023-03-13T15:44:54;11.80;84.50
18388;DHT22;9320;50.256;19.026;2023-03-13T15:47:22;11.80;84.70
18388;DHT22;9320;50.256;19.026;2023-03-13T15:49:50;11.70;85.00
18388;DHT22;9320;50.256;19.026;2023-03-13T15:52:20;11.70;85.00
18388;DHT22;9320;50.256;19.026;2023-03-13T15:54:50;11.70;85.20
18388;DHT22;9320;50.256;19.026;2023-03-13T15:57:21;11.70;85.20
18388;DHT22;9320;50.256;19.026;2023-03-13T15:59:49;11.70;85.20
18388;DHT22;9320;50.256;19.026;2023-03-13T16:02:19;11.60;85.10
18388;DHT22;9320;50.256;19.026;2023-03-13T16:04:48;11.60;85.50
18388;DHT22;9320;50.256;19.026;2023-03-13T16:07:18;11.60;85.40
18388;DHT22;9320;50.256;19.026;2023-03-13T16:09:47;11.50;85.40
18388;DHT22;9320;50.256;19.026;2023-03-13T16:12:16;11.60;85.60
18388;DHT22;9320;50.256;19.026;2023-03-13T16:14:44;11.60;85.70